CST,Max TemperatureF,Mean TemperatureF,Min TemperatureF,Max Dew PointF,MeanDew PointF,Min DewpointF,Max Humidity, Mean Humidity, Min Humidity, Max Sea Level PressureIn, Mean Sea Level PressureIn, Min Sea Level PressureIn, Max VisibilityMiles, Mean VisibilityMiles, Min VisibilityMiles, Max Wind SpeedMPH, Mean Wind SpeedMPH, Max Gust SpeedMPH,PrecipitationIn, CloudCover, Events, WindDirDegrees
2012-11-1,86,65,44,52,46,41,93,62,23,30.07,30.00,29.94,10,10,7,13,2,17,0.00,0,,250
2012-11-2,86,66,46,59,49,45,93,61,23,30.00,29.95,29.90,10,10,10,16,4,21,0.00,0,,169
2012-11-3,73,62,50,55,47,34,94,62,38,30.15,30.07,29.96,10,10,7,12,5,16,0.00,0,,1
2012-11-4,69,58,46,43,40,36,81,56,35,30.19,30.13,30.08,10,10,10,9,3,,0.00,1,,348
2012-11-5,71,56,39,43,37,28,93,59,23,30.15,30.09,30.05,10,10,2,21,5,29,0.00,0,,334
2012-11-6,71,53,35,41,37,32,93,60,27,30.18,30.13,30.07,10,10,10,10,3,,0.00,0,,300
2012-11-7,69,54,39,41,34,28,87,51,23,30.22,30.15,30.10,10,10,10,8,3,,0.00,0,,114
2012-11-8,77,60,44,59,47,36,83,59,39,30.10,30.03,29.95,10,10,7,22,8,30,0.00,0,,145
2012-11-9,78,69,60,61,57,54,88,67,42,30.03,29.96,29.90,10,10,10,26,16,32,0.00,1,,163
2012-11-10,77,70,62,61,58,54,88,71,47,29.99,29.90,29.81,10,10,10,26,19,40,0.00,2,,159
2012-11-11,69,52,35,63,51,30,100,83,67,30.31,29.98,29.77,10,10,3,24,15,37,0.24,6,Rain,322
2012-11-12,51,40,28,32,25,19,93,63,28,30.53,30.47,30.32,10,10,10,9,5,,0.00,0,,342
2012-11-13,55,40,26,32,25,18,100,57,24,30.53,30.45,30.36,10,10,10,13,3,18,0.00,2,,135
2012-11-14,59,46,32,36,29,23,93,58,27,30.45,30.37,30.30,10,10,10,8,2,,0.00,0,,142
2012-11-15,59,46,32,36,31,28,93,62,34,30.37,30.31,30.26,10,10,7,12,3,,0.00,0,,129
2012-11-16,62,47,32,37,31,27,93,61,27,30.45,30.39,30.35,10,9,3,7,2,,0.00,0,,55
2012-11-17,60,46,32,34,30,25,93,61,25,30.43,30.35,30.30,10,10,10,12,2,,0.00,0,,138
2012-11-18,64,50,35,37,35,30,87,55,34,30.31,30.25,30.20,10,10,10,16,7,20,0.00,2,,142
2012-11-19,69,60,51,55,47,36,94,64,47,30.23,30.18,30.12,10,10,10,15,8,21,0.00,3,,149
2012-11-20,77,60,44,57,49,43,100,71,36,30.24,30.19,30.15,10,9,2,6,1,,0.00,0,,42
2012-11-21,75,58,41,55,46,39,93,68,36,30.29,30.21,30.12,10,9,2,15,4,22,0.00,0,,146
2012-11-22,73,62,50,54,49,43,88,69,43,30.12,30.08,30.00,10,10,10,22,7,28,0.00,1,Rain,161
2012-11-23,59,46,33,52,29,18,88,45,20,30.48,30.38,30.12,10,10,10,23,11,32,0.00,1,,358
2012-11-24,57,42,26,27,22,14,86,50,20,30.47,30.30,30.10,10,10,10,12,5,,0.00,0,,163
2012-11-25,69,55,41,50,34,21,77,49,28,30.10,29.93,29.84,10,10,10,17,9,24,0.00,0,,152
2012-11-26,64,53,42,55,44,28,100,72,40,30.32,30.03,29.86,10,9,0,21,9,28,0.00,3,Fog,319
2012-11-27,51,42,32,32,30,27,87,68,44,30.48,30.39,30.32,10,10,10,14,5,17,0.00,0,,339
2012-11-28,62,47,32,37,34,28,100,70,39,30.43,30.34,30.27,10,9,2,15,4,18,0.00,0,,148
2012-11-29,64,50,37,46,37,32,93,63,32,30.26,30.17,30.09,10,10,10,20,10,24,0.00,0,,151
2012-11-30,69,58,46,59,53,45,100,84,60,30.14,30.07,30.02,10,8,2,18,10,23,0.00,1,,149